KSVE/SVE METAR and TAF weather

Enter ICAO airport designator
Station Type Date Time Source
KSVE METAR 2021/03/08 02:35 UTC NOAA

KSVE 080235Z AUTO 25004KT 10SM CLR 08/M03 A2996 RMK AO2


Station Type Date Time Source
KSVE Decoded METAR 2021/03/08 02:35 UTC NOAA

Susanville Municipal, CA, United States (KSVE) 40-23N 120-34W
Mar 07, 2021 - 09:35 PM EST / 2021.03.08 0235 UTC
Wind: from the WSW (250 degrees) at 5 MPH (4 KT):0
Visibility: 10 mile(s):0
Sky conditions: clear
Temperature: 46 F (8 C)
Dew Point: 26 F (-3 C)
Relative Humidity: 45%
Pressure (altimeter): 29.96 in. Hg (1014 hPa)
ob: KSVE 080235Z AUTO 25004KT 10SM CLR 08/M03 A2996 RMK AO2
cycle: 2

Station Type Date Time Source
KSVE TAF UTC NOAA

Error!

Example: see airport list